Time;durP1;ratioP1;P1;durP2;ratioP2;P2;SDS_P1;SDS_P2;PMS_P1;PMS_P2;Temp;Humidity;BMP_temperature;BMP_pressure;BME280_temperature;BME280_humidity;BME280_pressure;Samples;Min_cycle;Max_cycle;Signal;HPM_P1;HPM_P2
2022/03/19 00:00:06;;;;;;;23.13;9.15;;;;;;;18.68;41.13;103826.03;5051707;28;20053;-82
2022/03/19 00:02:32;;;;;;;26.80;9.45;;;;;;;18.69;41.19;103817.44;5051862;28;20045;-80
2022/03/19 00:04:58;;;;;;;22.85;8.52;;;;;;;18.57;41.52;103828.03;5052238;28;20029;-83
2022/03/19 00:07:24;;;;;;;17.58;7.05;;;;;;;18.60;41.69;103827.47;5051099;28;20037;-84
2022/03/19 00:09:49;;;;;;;17.08;7.32;;;;;;;18.74;41.28;103822.06;5051942;28;20029;-86
2022/03/19 00:12:15;;;;;;;24.92;9.43;;;;;;;18.75;41.43;103820.97;5051649;28;20040;-76
2022/03/19 00:14:41;;;;;;;28.48;10.05;;;;;;;18.81;41.11;103817.81;5034156;28;20067;-78
2022/03/19 00:17:08;;;;;;;19.30;7.18;;;;;;;18.84;41.26;103813.66;5052156;28;20036;-80
2022/03/19 00:19:33;;;;;;;21.98;7.38;;;;;;;18.74;41.51;103817.38;5071540;28;20107;-77
2022/03/19 00:21:59;;;;;;;19.02;6.55;;;;;;;18.74;41.65;103810.97;5071328;28;20112;-78
2022/03/19 00:24:25;;;;;;;22.25;7.22;;;;;;;18.81;41.46;103820.59;5052885;28;20055;-82
2022/03/19 00:26:50;;;;;;;18.98;5.90;;;;;;;18.79;41.73;103809.00;5053200;28;20098;-80
2022/03/19 00:29:16;;;;;;;18.90;6.35;;;;;;;18.80;41.70;103818.13;5071458;28;20390;-81
2022/03/19 00:31:42;;;;;;;24.08;6.53;;;;;;;18.69;41.95;103814.66;5053384;28;20560;-82
2022/03/19 00:34:07;;;;;;;20.48;6.60;;;;;;;18.67;42.13;103819.66;5071195;28;20052;-80
2022/03/19 00:36:33;;;;;;;26.23;7.22;;;;;;;18.72;41.96;103816.81;5070278;28;20020;-82
2022/03/19 00:38:58;;;;;;;29.40;7.32;;;;;;;18.79;41.81;103814.53;5051436;28;20016;-75
2022/03/19 00:41:24;;;;;;;25.45;7.70;;;;;;;18.74;41.71;103811.84;5062735;28;20025;-74
2022/03/19 00:43:49;;;;;;;26.90;7.82;;;;;;;18.80;41.82;103816.19;5056896;28;20032;-74
2022/03/19 00:46:15;;;;;;;20.23;6.15;;;;;;;18.78;42.00;103810.13;5052857;28;20037;-74
2022/03/19 00:48:42;;;;;;;22.30;7.05;;;;;;;18.85;41.89;103816.13;5053479;28;20021;-74
2022/03/19 00:51:07;;;;;;;21.67;7.20;;;;;;;18.84;41.91;103819.19;5055278;28;20020;-76
2022/03/19 00:53:33;;;;;;;21.65;8.18;;;;;;;18.82;42.10;103813.97;5055202;28;20079;-76
2022/03/19 00:55:59;;;;;;;22.75;7.40;;;;;;;18.84;42.02;103813.66;5055232;28;20021;-78
2022/03/19 00:58:24;;;;;;;23.27;7.43;;;;;;;18.89;42.03;103807.22;5055039;28;20028;-77
2022/03/19 01:00:50;;;;;;;25.02;7.35;;;;;;;18.80;42.35;103813.41;5055183;28;20036;-77
2022/03/19 01:03:16;;;;;;;25.42;8.20;;;;;;;18.88;42.12;103811.09;5055050;28;20123;-77
2022/03/19 01:05:42;;;;;;;21.90;8.07;;;;;;;18.83;42.12;103803.69;5055082;28;20032;-77
2022/03/19 01:08:08;;;;;;;50.08;23.13;;;;;;;18.95;41.95;103811.56;5055030;28;20389;-83
2022/03/19 01:10:35;;;;;;;43.20;23.65;;;;;;;18.93;41.90;103811.88;5054919;28;20450;-82
2022/03/19 01:13:03;;;;;;;27.40;11.77;;;;;;;18.96;42.00;103808.50;5054843;28;20021;-82
2022/03/19 01:15:29;;;;;;;49.45;23.45;;;;;;;18.99;41.80;103812.66;5054904;28;20025;-77
2022/03/19 01:17:54;;;;;;;28.92;11.93;;;;;;;18.99;41.75;103807.09;5060991;28;20028;-82
2022/03/19 01:20:21;;;;;;;47.13;23.08;;;;;;;18.98;41.79;103811.81;5054720;28;20028;-77
2022/03/19 01:22:47;;;;;;;28.77;16.00;;;;;;;18.96;41.75;103813.22;5054531;28;20387;-77
2022/03/19 01:25:14;;;;;;;31.40;14.95;;;;;;;18.96;41.60;103808.50;5054894;28;20051;-77
2022/03/19 01:27:42;;;;;;;21.20;6.65;;;;;;;18.93;41.63;103811.88;5054721;28;20073;-77
2022/03/19 01:30:09;;;;;;;29.77;11.77;;;;;;;18.90;41.62;103809.72;5055003;28;20036;-77
2022/03/19 01:32:35;;;;;;;55.92;29.70;;;;;;;18.91;41.46;103805.00;5054839;28;20057;-78
2022/03/19 01:35:01;;;;;;;21.52;8.88;;;;;;;18.88;41.61;103800.84;5054833;28;20025;-77
2022/03/19 01:37:26;;;;;;;20.60;9.27;;;;;;;18.82;41.64;103791.78;5054840;28;20033;-77
2022/03/19 01:39:55;;;;;;;69.95;44.97;;;;;;;18.81;41.65;103797.59;5054816;28;20059;-77
2022/03/19 01:42:28;;;;;;;45.30;29.27;;;;;;;18.73;41.72;103788.00;5054651;28;20033;-77
2022/03/19 01:44:56;;;;;;;67.50;39.58;;;;;;;18.72;41.51;103786.34;5054700;28;20072;-77
2022/03/19 01:47:23;;;;;;;50.40;29.95;;;;;;;18.72;41.70;103780.00;5054672;28;20029;-77
2022/03/19 01:49:49;;;;;;;42.88;23.58;;;;;;;18.71;41.42;103784.72;5054551;28;20036;-77
2022/03/19 01:52:15;;;;;;;36.15;20.08;;;;;;;18.67;41.38;103789.22;5054538;28;20131;-76
2022/03/19 01:54:44;;;;;;;45.13;23.38;;;;;;;18.60;41.40;103785.94;5054539;28;20029;-76
2022/03/19 01:57:14;;;;;;;27.25;14.80;;;;;;;18.58;41.35;103786.19;5054492;28;20040;-76
2022/03/19 01:59:40;;;;;;;;;;;;;;;18.29;41.34;103772.41;5054255;28;20028;-76
2022/03/19 02:02:08;;;;;;;20.05;7.22;;;;;;;18.35;41.56;103775.13;5054234;28;19916;-76
2022/03/19 02:04:35;;;;;;;23.27;7.68;;;;;;;18.32;41.27;103765.47;5054359;28;20032;-76
2022/03/19 02:07:01;;;;;;;22.85;7.75;;;;;;;18.23;41.11;103775.53;5054307;28;20381;-76
2022/03/19 02:09:28;;;;;;;24.90;9.73;;;;;;;18.19;41.25;103766.97;5054218;28;20036;-77
2022/03/19 02:11:54;;;;;;;20.38;8.90;;;;;;;18.25;41.48;103768.56;5036350;28;20029;-76
2022/03/19 02:14:20;;;;;;;21.25;8.82;;;;;;;18.27;41.51;103755.25;5054225;28;20537;-77
2022/03/19 02:16:47;;;;;;;19.25;8.48;;;;;;;18.27;41.64;103746.13;5054081;28;20029;-77
2022/03/19 02:19:12;;;;;;;19.88;8.20;;;;;;;18.39;41.48;103754.03;5054065;28;20387;-77
2022/03/19 02:21:41;;;;;;;17.67;7.30;;;;;;;18.45;41.75;103750.09;5053946;28;20029;-76
2022/03/19 02:26:51;;;;;;;23.95;6.78;;;;;;;18.50;41.59;103745.31;5053819;28;20043;-77
2022/03/19 02:29:16;;;;;;;18.90;6.72;;;;;;;18.51;41.71;103740.59;5053854;28;20111;-77
2022/03/19 02:31:44;;;;;;;22.30;7.40;;;;;;;18.53;41.75;103743.91;5053823;28;20090;-77
2022/03/19 02:34:10;;;;;;;17.73;6.68;;;;;;;18.64;41.54;103737.13;5053739;28;20032;-77
2022/03/19 02:36:40;;;;;;;18.63;6.82;;;;;;;18.63;41.61;103732.72;5053646;28;20028;-77
2022/03/19 02:39:21;;;;;;;21.08;6.75;;;;;;;18.66;41.49;103728.53;5053633;28;20064;-76
2022/03/19 02:41:49;;;;;;;17.67;6.63;;;;;;;18.68;41.75;103734.63;5053648;28;20437;-77
2022/03/19 02:44:17;;;;;;;24.73;7.15;;;;;;;18.66;41.47;103729.38;5053582;28;20412;-77
2022/03/19 02:46:46;;;;;;;16.73;6.05;;;;;;;18.62;41.48;103724.72;5053581;28;20382;-76
2022/03/19 02:49:12;;;;;;;13.00;5.70;;;;;;;18.46;41.35;103726.84;5053587;28;20032;-76
2022/03/19 02:51:40;;;;;;;18.52;6.10;;;;;;;18.38;41.41;103725.53;5053445;28;20032;-77
2022/03/19 02:54:08;;;;;;;14.00;6.75;;;;;;;18.32;41.17;103717.59;5053385;28;20025;-76
2022/03/19 02:56:36;;;;;;;22.77;5.60;;;;;;;18.39;41.72;103715.28;5053276;28;20104;-76
2022/03/19 02:59:13;;;;;;;26.42;7.53;;;;;;;18.43;41.75;103713.56;5035339;28;20388;-77
2022/03/19 03:01:39;;;;;;;20.30;5.20;;;;;;;18.46;41.64;103704.69;5053117;28;20033;-77
2022/03/19 03:04:05;;;;;;;19.23;5.47;;;;;;;18.51;41.54;103693.53;5053184;28;20021;-77
2022/03/19 03:06:36;;;;;;;11.88;6.15;;;;;;;18.40;41.74;103703.91;5053206;28;20490;-82
2022/03/19 03:09:02;;;;;;;20.30;5.65;;;;;;;18.53;41.63;103692.13;5053091;28;20123;-77
2022/03/19 03:11:28;;;;;;;20.45;6.60;;;;;;;18.57;41.63;103686.81;5049689;28;20024;-77
2022/03/19 03:13:53;;;;;;;16.92;5.40;;;;;;;18.54;41.89;103690.19;5052932;28;20103;-77
2022/03/19 03:16:19;;;;;;;19.20;5.50;;;;;;;18.60;41.58;103688.19;5052998;28;20025;-77
2022/03/19 03:18:45;;;;;;;16.17;5.68;;;;;;;18.63;41.49;103677.31;5052964;28;20120;-77
2022/03/19 03:21:11;;;;;;;17.20;5.72;;;;;;;18.60;41.44;103669.63;5052887;28;20071;-76
2022/03/19 03:23:37;;;;;;;20.08;4.97;;;;;;;18.57;41.63;103664.66;5052853;28;20108;-76
2022/03/19 03:26:02;;;;;;;14.55;5.38;;;;;;;18.53;41.60;103671.94;5034939;28;20029;-77
2022/03/19 03:28:28;;;;;;;18.88;5.28;;;;;;;18.53;41.60;103677.47;5052587;28;20045;-77
2022/03/19 03:30:54;;;;;;;19.15;5.13;;;;;;;18.38;42.04;103669.34;5052758;28;20436;-76
2022/03/19 03:33:20;;;;;;;17.17;5.53;;;;;;;18.46;41.98;103666.75;5052766;28;20049;-77
2022/03/19 03:35:45;;;;;;;19.63;5.57;;;;;;;18.51;41.86;103652.00;5052636;28;20032;-76
2022/03/19 03:38:11;;;;;;;16.92;5.22;;;;;;;18.58;41.57;103658.00;5052650;28;20021;-77
2022/03/19 03:40:37;;;;;;;19.67;5.07;;;;;;;18.52;41.70;103654.50;5052634;28;20440;-76
2022/03/19 03:43:03;;;;;;;15.55;5.50;;;;;;;18.41;41.87;103655.72;5052495;28;20506;-77
2022/03/19 03:45:29;;;;;;;11.88;4.97;;;;;;;18.38;41.99;103656.34;5052606;28;20048;-77
2022/03/19 03:47:55;;;;;;;17.80;5.18;;;;;;;18.38;41.89;103656.34;5052561;28;20021;-78
2022/03/19 03:50:21;;;;;;;20.77;6.00;;;;;;;18.40;41.87;103656.03;5052492;28;20036;-76
2022/03/19 03:52:47;;;;;;;24.98;5.22;;;;;;;18.45;41.78;103654.03;5052441;28;20120;-76
2022/03/19 03:55:14;;;;;;;15.77;4.85;;;;;;;18.40;41.88;103656.84;5052497;28;20502;-77
2022/03/19 03:57:40;;;;;;;14.52;4.07;;;;;;;18.38;41.69;103653.56;5052458;28;20036;-77
2022/03/19 04:00:10;;;;;;;13.20;4.93;;;;;;;18.30;42.06;103646.75;5052426;28;20033;-77
2022/03/19 04:02:37;;;;;;;15.75;4.75;;;;;;;18.42;41.74;103639.94;5052298;28;20102;-77
2022/03/19 04:05:04;;;;;;;17.80;5.53;;;;;;;18.43;41.79;103639.63;5034521;28;20029;-80
2022/03/19 04:07:30;;;;;;;20.08;6.07;;;;;;;18.50;41.70;103642.88;5052355;28;20226;-77
2022/03/19 04:09:56;;;;;;;15.50;6.00;;;;;;;18.47;41.59;103645.41;5052316;28;20033;-77
2022/03/19 04:12:24;;;;;;;15.80;5.70;;;;;;;18.50;41.54;103648.41;5052359;28;20029;-77
2022/03/19 04:14:51;;;;;;;15.52;5.10;;;;;;;18.46;41.59;103639.06;5052259;28;20029;-77
2022/03/19 04:17:18;;;;;;;18.13;6.78;;;;;;;18.47;41.29;103646.25;5052267;28;20025;-77
2022/03/19 04:19:44;;;;;;;14.63;5.70;;;;;;;18.49;41.42;103641.22;5034456;28;20036;-77
2022/03/19 04:22:09;;;;;;;18.08;6.28;;;;;;;18.43;41.48;103641.59;5034227;28;20029;-77
2022/03/19 04:24:35;;;;;;;19.08;5.68;;;;;;;18.46;41.35;103641.00;5055863;28;20036;-77
2022/03/19 04:27:01;;;;;;;12.70;5.85;;;;;;;18.40;41.43;103644.97;5055964;28;20053;-76
2022/03/19 04:29:27;;;;;;;17.75;5.63;;;;;;;18.42;41.36;103638.00;5056177;28;20033;-77
2022/03/19 04:31:54;;;;;;;20.13;6.75;;;;;;;18.38;41.52;103638.91;5055948;28;20119;-77
2022/03/19 04:34:20;;;;;;;14.77;5.97;;;;;;;18.38;41.44;103631.41;5056011;28;20434;-76
2022/03/19 04:36:45;;;;;;;21.42;6.57;;;;;;;18.38;41.56;103636.13;5055980;28;20051;-77
2022/03/19 04:39:11;;;;;;;20.83;6.28;;;;;;;18.32;41.67;103637.31;5037935;28;20039;-77
2022/03/19 04:41:38;;;;;;;17.25;6.15;;;;;;;18.44;41.32;103626.63;5055848;28;20075;-77
2022/03/19 04:44:05;;;;;;;15.82;5.22;;;;;;;18.41;41.55;103625.28;5055885;28;20075;-77
2022/03/19 04:46:31;;;;;;;16.10;6.20;;;;;;;18.41;41.57;103616.16;5055806;28;20036;-78
2022/03/19 04:48:57;;;;;;;15.95;6.22;;;;;;;18.34;41.47;103616.50;5055753;28;20079;-77
2022/03/19 04:51:29;;;;;;;15.80;6.47;;;;;;;18.25;42.00;103619.13;5055687;28;20483;-76
2022/03/19 04:53:55;;;;;;;17.25;6.90;;;;;;;18.41;41.47;103616.16;5055680;28;20079;-77
2022/03/19 04:56:26;;;;;;;17.40;6.68;;;;;;;18.42;41.55;103610.31;5055621;28;20029;-77
2022/03/19 04:58:53;;;;;;;17.02;5.03;;;;;;;18.42;41.50;103607.53;5055653;28;20029;-76
2022/03/19 05:01:19;;;;;;;16.55;5.40;;;;;;;18.41;41.51;103608.66;5055475;28;20031;-76
2022/03/19 05:03:45;;;;;;;19.38;6.45;;;;;;;18.35;41.40;103603.50;5055425;28;20025;-77
2022/03/19 05:06:11;;;;;;;16.33;5.95;;;;;;;18.24;41.64;103598.09;5055403;28;20025;-80
2022/03/19 05:08:36;;;;;;;16.60;5.55;;;;;;;18.20;41.93;103602.56;5055401;28;20024;-76
2022/03/19 05:11:15;;;;;;;17.08;6.15;;;;;;;18.16;42.05;103595.97;5055388;28;20383;-76
2022/03/19 05:13:43;;;;;;;17.25;6.47;;;;;;;18.25;41.66;103599.75;5055350;28;20039;-77
2022/03/19 05:16:09;;;;;;;21.23;6.05;;;;;;;18.30;41.73;103608.00;5055253;28;20501;-76
2022/03/19 05:18:35;;;;;;;20.55;5.50;;;;;;;18.30;41.72;103602.44;5055207;28;20049;-77
2022/03/19 05:21:01;;;;;;;17.77;6.00;;;;;;;18.26;41.90;103606.91;5055175;28;20052;-77
2022/03/19 05:23:27;;;;;;;18.15;6.80;;;;;;;18.31;41.60;103603.28;5055045;28;20467;-77
2022/03/19 05:25:52;;;;;;;19.98;6.85;;;;;;;18.19;41.88;103600.91;5054992;28;20021;-78
2022/03/19 05:28:19;;;;;;;13.98;6.95;;;;;;;18.25;41.72;103599.75;5054892;28;20110;-77
2022/03/19 05:30:45;;;;;;;15.32;6.43;;;;;;;18.21;42.08;103598.69;5054936;28;20048;-77
2022/03/19 05:33:12;;;;;;;19.90;6.70;;;;;;;18.24;41.84;103597.28;5037104;28;20021;-77
2022/03/19 05:35:38;;;;;;;18.77;5.80;;;;;;;18.32;41.73;103588.31;5053884;28;20471;-77
2022/03/19 05:38:07;;;;;;;19.80;7.90;;;;;;;18.34;41.70;103588.81;5054810;28;20029;-77
2022/03/19 05:40:32;;;;;;;21.52;6.15;;;;;;;18.34;41.51;103588.00;5054788;28;20025;-77
2022/03/19 05:42:58;;;;;;;25.58;5.43;;;;;;;18.28;41.68;103592.78;5054648;28;20033;-76
2022/03/19 05:45:23;;;;;;;14.52;4.85;;;;;;;18.25;41.56;103594.19;5054725;28;20116;-77
2022/03/19 05:47:49;;;;;;;14.70;5.00;;;;;;;18.21;41.41;103589.53;5054651;28;20024;-76
2022/03/19 05:50:16;;;;;;;9.40;4.93;;;;;;;18.16;41.51;103595.16;5054591;28;20032;-77
2022/03/19 05:52:45;;;;;;;16.58;4.55;;;;;;;18.20;41.39;103596.19;5054533;28;20025;-77
2022/03/19 05:55:11;;;;;;;10.77;4.30;;;;;;;18.17;41.54;103588.50;5036656;28;20382;-77
2022/03/19 05:57:36;;;;;;;12.05;4.53;;;;;;;18.19;41.50;103592.63;5054508;28;20108;-77
2022/03/19 06:00:04;;;;;;;14.63;5.03;;;;;;;18.18;41.27;103584.63;5054478;28;20091;-77
2022/03/19 06:02:30;;;;;;;16.33;5.53;;;;;;;18.11;41.43;103584.97;5054236;28;20028;-77
2022/03/19 06:04:55;;;;;;;16.67;5.15;;;;;;;18.12;41.43;103586.63;5054405;28;20032;-76
2022/03/19 06:07:21;;;;;;;17.83;4.60;;;;;;;18.09;41.36;103589.97;5054267;28;20025;-77
2022/03/19 06:09:47;;;;;;;12.57;4.65;;;;;;;18.03;41.36;103591.97;5054219;28;20033;-76
2022/03/19 06:12:12;;;;;;;14.13;4.70;;;;;;;17.96;41.52;103583.22;5054211;28;20078;-77
2022/03/19 06:14:38;;;;;;;17.17;4.13;;;;;;;17.93;41.59;103574.69;5054076;28;20023;-76
2022/03/19 06:17:04;;;;;;;13.30;4.18;;;;;;;17.97;41.23;103581.25;5054104;28;20104;-76
2022/03/19 06:19:30;;;;;;;13.05;4.90;;;;;;;17.94;41.44;103579.91;5054063;28;20052;-77
2022/03/19 06:21:55;;;;;;;12.90;3.42;;;;;;;17.97;41.20;103578.50;5053932;28;20548;-81
2022/03/19 06:24:23;;;;;;;18.02;5.15;;;;;;;17.97;41.63;103570.19;5053978;28;20384;-77
2022/03/19 06:26:49;;;;;;;15.85;4.70;;;;;;;17.89;41.70;103574.44;5053734;28;20444;-77
2022/03/19 06:29:15;;;;;;;17.85;4.95;;;;;;;17.96;41.45;103568.56;5053894;28;20518;-77
2022/03/19 06:31:41;;;;;;;20.05;6.05;;;;;;;18.07;41.54;103581.16;5053799;28;20036;-76
2022/03/19 06:34:06;;;;;;;17.15;5.60;;;;;;;18.02;41.42;103582.03;5053762;28;20025;-77
2022/03/19 06:39:16;;;;;;;12.65;5.18;;;;;;;18.14;41.20;103578.03;5053757;28;20024;-76
2022/03/19 06:41:42;;;;;;;22.27;5.80;;;;;;;18.11;41.29;103576.66;5053707;28;20021;-76
2022/03/19 06:44:08;;;;;;;14.65;5.20;;;;;;;18.13;41.24;103579.13;5053591;28;20061;-81
2022/03/19 06:46:33;;;;;;;12.02;4.93;;;;;;;18.11;41.19;103584.16;5053306;28;20017;-77
2022/03/19 06:48:59;;;;;;;11.07;5.25;;;;;;;18.04;41.27;103581.72;5053505;28;20025;-77
2022/03/19 06:51:25;;;;;;;17.02;5.32;;;;;;;17.99;41.22;103584.59;5053466;28;20386;-77
2022/03/19 06:53:50;;;;;;;12.52;4.70;;;;;;;17.96;41.18;103579.63;5053422;28;20024;-78
2022/03/19 06:56:17;;;;;;;12.30;3.95;;;;;;;17.94;41.33;103576.34;5035522;28;20029;-77
2022/03/19 06:58:42;;;;;;;10.25;3.25;;;;;;;17.86;41.53;103580.56;5053404;28;20100;-78
2022/03/19 07:01:14;;;;;;;8.57;3.95;;;;;;;17.86;41.83;103576.97;5053297;28;20063;-76
2022/03/19 07:03:42;;;;;;;10.90;2.95;;;;;;;17.86;41.70;103569.50;5053283;28;20150;-76
2022/03/19 07:06:08;;;;;;;13.57;3.95;;;;;;;18.08;41.37;103566.19;5053184;28;20029;-76
2022/03/19 07:08:34;;;;;;;16.98;3.70;;;;;;;18.13;41.49;103560.59;5053200;28;20040;-77
2022/03/19 07:10:59;;;;;;;19.25;4.47;;;;;;;18.25;41.17;103558.22;5053074;28;20520;-77
2022/03/19 07:13:25;;;;;;;12.73;3.03;;;;;;;18.36;41.19;103566.38;5053091;28;20029;-81
2022/03/19 07:15:51;;;;;;;9.57;4.28;;;;;;;18.45;41.04;103559.09;5053115;28;20414;-77
2022/03/19 07:18:16;;;;;;;17.50;4.20;;;;;;;18.45;41.01;103567.38;5035152;28;20115;-77
2022/03/19 07:20:42;;;;;;;13.02;5.35;;;;;;;18.50;40.74;103548.72;5052944;28;20035;-76
2022/03/19 07:23:08;;;;;;;39.80;26.38;;;;;;;18.44;40.75;103561.03;5052856;28;20079;-76
2022/03/19 07:25:38;;;;;;;24.67;15.43;;;;;;;18.41;40.25;103575.44;5052830;28;20025;-76
2022/03/19 07:28:12;;;;;;;47.22;26.77;;;;;;;18.45;40.90;103565.44;5052715;28;20040;-80
2022/03/19 07:30:38;;;;;;;42.17;26.65;;;;;;;18.59;40.45;103562.75;5052744;28;20025;-78
2022/03/19 07:33:05;;;;;;;40.38;25.00;;;;;;;18.57;40.47;103559.44;5052922;28;20051;-77
2022/03/19 07:35:30;;;;;;;17.15;9.63;;;;;;;18.64;40.37;103556.31;5052703;28;20027;-77
2022/03/19 07:38:00;;;;;;;20.05;6.18;;;;;;;18.64;40.20;103562.66;5052727;28;20470;-76
2022/03/19 07:43:12;;;;;;;18.90;4.10;;;;;;;18.97;39.91;103565.53;5052610;28;20502;-77
2022/03/19 07:45:40;;;;;;;16.73;5.90;;;;;;;19.02;39.73;103557.94;5034748;28;20029;-76
2022/03/19 07:48:06;;;;;;;19.00;4.45;;;;;;;19.18;39.81;103561.25;5052540;28;20017;-77
2022/03/19 07:50:33;;;;;;;16.25;5.75;;;;;;;19.02;40.02;103555.16;5052657;28;20044;-76
2022/03/19 07:52:59;;;;;;;13.10;4.88;;;;;;;19.06;40.01;103549.84;5052584;28;20486;-76
2022/03/19 07:55:25;;;;;;;11.90;3.92;;;;;;;19.27;39.74;103553.91;5052473;28;20021;-77
2022/03/19 07:57:52;;;;;;;22.13;4.75;;;;;;;19.25;39.75;103545.06;5051954;28;20437;-80
2022/03/19 08:00:18;;;;;;;17.10;4.53;;;;;;;19.20;40.17;103539.63;5052475;28;20020;-81
2022/03/19 08:02:44;;;;;;;16.95;4.40;;;;;;;19.10;40.73;103542.56;5052388;28;20463;-78
2022/03/19 08:05:10;;;;;;;16.52;4.32;;;;;;;19.22;39.99;103540.13;5052404;28;20100;-77
2022/03/19 08:07:37;;;;;;;16.50;4.50;;;;;;;19.30;40.07;103542.22;5052353;28;20479;-77
2022/03/19 08:10:10;;;;;;;13.43;3.65;;;;;;;19.16;40.29;103544.13;5052401;28;20025;-76
2022/03/19 08:12:37;;;;;;;13.70;3.50;;;;;;;19.23;40.10;103538.19;5052338;28;20032;-77
2022/03/19 08:15:04;;;;;;;17.48;3.20;;;;;;;19.12;40.54;103541.16;5034436;28;20383;-81
2022/03/19 08:17:30;;;;;;;15.23;3.55;;;;;;;19.36;39.86;103537.41;5052310;28;20082;-77
2022/03/19 08:19:59;;;;;;;12.20;3.45;;;;;;;19.48;39.91;103536.88;5052226;28;20028;-77
2022/03/19 08:22:26;;;;;;;16.25;4.15;;;;;;;19.63;39.83;103540.22;5052195;28;20035;-76
2022/03/19 08:24:52;;;;;;;19.23;5.05;;;;;;;19.74;39.56;103540.84;5052277;28;20086;-76
2022/03/19 08:27:18;;;;;;;24.25;6.00;;;;;;;19.60;40.25;103540.84;5052089;28;20503;-77
2022/03/19 08:29:44;;;;;;;21.92;5.25;;;;;;;19.72;39.91;103529.22;5052154;28;20108;-78
2022/03/19 08:32:10;;;;;;;34.47;6.53;;;;;;;19.71;40.02;103530.34;5034354;28;20119;-76
2022/03/19 08:34:37;;;;;;;17.73;4.05;;;;;;;19.81;39.92;103532.94;5051654;28;20029;-79
2022/03/19 08:37:06;;;;;;;21.55;4.60;;;;;;;19.79;40.24;103520.50;5052370;28;20070;-76
2022/03/19 08:42:22;;;;;;;19.75;5.13;;;;;;;19.91;39.69;103509.72;5040830;28;20060;-83
2022/03/19 08:44:48;;;;;;;18.48;5.82;;;;;;;20.00;39.36;103515.34;5060118;28;20028;-81
2022/03/19 08:47:13;;;;;;;24.15;6.10;;;;;;;20.00;39.19;103509.81;5051767;28;20371;-76
2022/03/19 08:49:39;;;;;;;19.42;5.80;;;;;;;20.06;39.09;103506.59;5062044;28;20356;-83
2022/03/19 08:52:05;;;;;;;18.10;6.25;;;;;;;19.98;39.04;103509.28;5061470;28;20104;-78
2022/03/19 08:54:31;;;;;;;36.60;7.93;;;;;;;19.97;38.90;103502.09;5059830;28;20021;-84
2022/03/19 08:56:56;;;;;;;21.73;6.80;;;;;;;19.95;39.06;103497.69;5061735;28;20013;-78
2022/03/19 08:59:22;;;;;;;15.18;6.28;;;;;;;20.13;38.63;103493.13;5061161;28;20022;-84
2022/03/19 09:01:50;;;;;;;27.20;7.82;;;;;;;20.13;38.58;103481.22;5062980;28;20485;-84
2022/03/19 09:04:16;;;;;;;24.52;7.85;;;;;;;19.84;39.26;103489.88;5056584;28;20017;-83
2022/03/19 09:06:43;;;;;;;26.30;8.73;;;;;;;19.86;39.19;103491.22;5062043;28;20028;-84
2022/03/19 09:09:09;;;;;;;21.77;8.43;;;;;;;19.64;39.49;103489.16;5061717;28;20022;-84
2022/03/19 09:11:37;;;;;;;22.38;8.05;;;;;;;20.07;38.56;103493.56;5060431;28;20083;-84
2022/03/19 09:14:05;;;;;;;21.50;8.65;;;;;;;19.85;38.87;103485.97;5066303;28;20021;-78
2022/03/19 09:16:32;;;;;;;17.33;7.60;;;;;;;19.86;38.86;103487.63;5062860;28;20021;-78
2022/03/19 09:18:58;;;;;;;23.35;10.10;;;;;;;19.90;38.82;103480.31;5065235;28;20052;-82
2022/03/19 09:21:24;;;;;;;62.35;14.05;;;;;;;19.73;39.29;103483.75;5044656;28;20048;-84
2022/03/19 09:23:50;;;;;;;27.52;11.15;;;;;;;19.91;39.01;103479.19;5064972;28;20040;-84
2022/03/19 09:26:21;;;;;;;20.30;9.27;;;;;;;19.87;39.20;103478.16;5060573;28;20032;-82
2022/03/19 09:28:47;;;;;;;35.72;13.15;;;;;;;20.07;38.90;103474.13;5062685;28;20441;-78
2022/03/19 09:31:16;;;;;;;25.33;12.00;;;;;;;20.01;39.04;103478.97;5062767;28;20029;-78
2022/03/19 09:33:46;;;;;;;41.53;14.80;;;;;;;20.10;38.92;103462.38;5063766;28;20052;-79
2022/03/19 09:36:12;;;;;;;22.60;11.35;;;;;;;20.13;39.11;103470.09;5064774;28;20028;-77
2022/03/19 09:38:39;;;;;;;33.83;12.95;;;;;;;20.34;38.82;103474.06;5063319;28;20020;-79
2022/03/19 09:41:05;;;;;;;32.72;13.35;;;;;;;20.32;39.04;103462.41;5063212;28;20028;-78
2022/03/19 09:43:31;;;;;;;34.00;15.95;;;;;;;20.26;39.17;103462.88;5064607;28;20390;-79
2022/03/19 09:45:57;;;;;;;33.72;15.90;;;;;;;20.29;39.13;103457.50;5062029;28;20147;-77
2022/03/19 09:48:23;;;;;;;30.85;13.57;;;;;;;20.26;39.12;103449.00;5061911;28;20016;-77
2022/03/19 09:50:54;;;;;;;30.50;15.07;;;;;;;20.30;38.88;103450.81;5064493;28;20096;-78
2022/03/19 09:53:23;;;;;;;27.73;12.70;;;;;;;20.27;39.05;103445.91;5061046;28;20091;-78
2022/03/19 09:55:51;;;;;;;34.30;14.27;;;;;;;20.14;39.46;103444.81;5065266;28;20068;-77
2022/03/19 09:58:17;;;;;;;42.63;14.90;;;;;;;20.20;39.28;103445.50;5060314;28;20023;-77
2022/03/19 10:00:43;;;;;;;42.78;15.77;;;;;;;20.28;39.45;103441.16;5063065;28;20099;-77
2022/03/19 10:03:12;;;;;;;39.40;14.55;;;;;;;20.08;39.75;103445.22;5064166;28;20025;-77
2022/03/19 10:08:37;;;;;;;30.70;14.20;;;;;;;20.23;39.60;103436.53;5064056;28;20036;-77
2022/03/19 10:11:07;;;;;;;27.42;14.02;;;;;;;20.29;39.62;103421.41;5053890;28;20024;-77
2022/03/19 10:13:33;;;;;;;;;;;;;;;20.31;39.36;103426.66;5061546;28;20029;-77
2022/03/19 10:15:58;;;;;;;35.65;13.50;;;;;;;20.35;39.10;103428.50;5060263;28;19944;-77
2022/03/19 10:18:29;;;;;;;40.55;15.10;;;;;;;20.40;38.72;103436.72;5063746;28;20060;-77
2022/03/19 10:20:58;;;;;;;33.03;13.00;;;;;;;20.50;38.63;103433.69;5058542;28;20021;-77
2022/03/19 10:23:30;;;;;;;41.40;14.13;;;;;;;20.18;39.06;103425.56;5053886;28;20032;-77
2022/03/19 10:25:55;;;;;;;30.25;13.63;;;;;;;20.30;39.02;103423.03;5061344;28;20514;-77
2022/03/19 10:28:28;;;;;;;32.17;13.55;;;;;;;20.19;38.88;103422.47;5053528;28;20041;-77
2022/03/19 10:30:54;;;;;;;35.88;13.32;;;;;;;20.25;39.06;103417.59;5052824;28;20096;-79
2022/03/19 10:33:28;;;;;;;35.50;12.57;;;;;;;20.07;39.09;103413.06;5051049;28;20168;-76
2022/03/19 10:36:10;;;;;;;27.08;11.93;;;;;;;20.34;38.55;103418.53;5041501;28;20029;-82
2022/03/19 10:38:46;;;;;;;37.92;14.77;;;;;;;20.35;38.46;103411.81;5051496;28;20467;-81
2022/03/19 10:41:17;;;;;;;37.80;14.73;;;;;;;20.34;38.66;103415.75;5052765;28;20025;-82
2022/03/19 10:43:45;;;;;;;36.58;12.75;;;;;;;20.06;38.77;103406.69;5058303;28;20033;-82
2022/03/19 10:46:11;;;;;;;28.75;12.88;;;;;;;20.04;39.05;103405.38;5053169;28;20110;-77
2022/03/19 10:48:37;;;;;;;34.30;13.63;;;;;;;20.14;38.66;103402.34;5053138;28;20055;-78
2022/03/19 10:51:10;;;;;;;33.47;14.88;;;;;;;20.22;38.34;103407.16;5053110;28;20025;-77
2022/03/19 10:53:36;;;;;;;33.30;13.35;;;;;;;20.49;38.30;103407.06;5057735;28;20104;-82
2022/03/19 10:56:03;;;;;;;31.27;15.35;;;;;;;20.57;38.26;103411.03;5061419;28;20025;-77
2022/03/19 10:58:29;;;;;;;40.88;16.45;;;;;;;20.57;38.32;103413.00;5064733;28;20017;-83
2022/03/19 11:00:56;;;;;;;30.17;16.25;;;;;;;20.54;38.15;103410.84;5062665;28;20028;-77
2022/03/19 11:03:27;;;;;;;34.22;15.13;;;;;;;20.26;38.84;103402.63;5061538;28;20021;-81
2022/03/19 11:05:57;;;;;;;31.10;15.60;;;;;;;20.30;38.54;103386.94;5059949;28;20048;-83
2022/03/19 11:08:24;;;;;;;31.77;14.57;;;;;;;20.21;38.70;103383.31;5056852;28;20070;-78
2022/03/19 11:10:52;;;;;;;30.20;13.73;;;;;;;20.21;38.67;103377.75;5064577;28;20037;-78
2022/03/19 11:13:22;;;;;;;29.80;13.65;;;;;;;20.12;38.87;103376.88;5056592;28;20021;-78
2022/03/19 11:15:51;;;;;;;32.13;14.27;;;;;;;20.29;38.59;103385.31;5056928;28;20115;-83
2022/03/19 11:18:19;;;;;;;41.53;14.85;;;;;;;20.35;38.70;103378.50;5052638;28;20108;-77
2022/03/19 11:20:45;;;;;;;27.60;13.80;;;;;;;20.31;38.95;103380.25;5055242;28;20042;-84
2022/03/19 11:23:15;;;;;;;35.42;14.38;;;;;;;20.42;38.52;103378.06;5062542;28;20021;-77
2022/03/19 11:25:53;;;;;;;30.90;14.38;;;;;;;20.21;38.79;103378.56;5055352;28;20234;-77
2022/03/19 11:28:19;;;;;;;37.40;14.57;;;;;;;20.37;38.56;103369.84;5059676;28;20041;-77